Time;durP1;ratioP1;P1;durP2;ratioP2;P2;SDS_P1;SDS_P2;PMS_P1;PMS_P2;Temp;Humidity;BMP_temperature;BMP_pressure;BME280_temperature;BME280_humidity;BME280_pressure;Samples;Min_cycle;Max_cycle;Signal;HPM_P1;HPM_P2
2022/10/07 00:00:24;;;;;;;10.52;6.43;;;;;;;12.63;76.87;99963.50;6047428;23;20030;-81
2022/10/07 00:02:50;;;;;;;8.68;6.68;;;;;;;12.63;76.98;99959.16;6071710;23;20074;-81
2022/10/07 00:05:16;;;;;;;8.02;6.38;;;;;;;12.58;76.92;99963.56;6071407;23;20018;-79
2022/10/07 00:07:42;;;;;;;8.82;6.60;;;;;;;12.62;76.80;99962.66;6070705;23;20523;-80
2022/10/07 00:10:08;;;;;;;10.23;5.88;;;;;;;12.60;76.60;99959.19;6071071;23;20041;-81
2022/10/07 00:12:34;;;;;;;8.63;6.47;;;;;;;12.67;76.81;99969.56;6096829;23;20476;-79
2022/10/07 00:15:00;;;;;;;9.07;6.78;;;;;;;12.70;76.60;99978.19;6048057;23;20029;-78
2022/10/07 00:17:26;;;;;;;8.23;6.32;;;;;;;12.68;76.55;99976.50;6071647;23;20022;-81
2022/10/07 00:19:53;;;;;;;9.73;6.10;;;;;;;12.71;76.74;99973.81;6071166;23;20024;-80
2022/10/07 00:22:19;;;;;;;7.45;5.70;;;;;;;12.65;76.45;99970.44;6096388;23;20018;-81
2022/10/07 00:24:45;;;;;;;7.95;6.10;;;;;;;12.57;76.29;99961.84;6071250;23;20022;-80
2022/10/07 00:27:11;;;;;;;7.95;5.88;;;;;;;12.58;76.11;99976.63;6070352;23;20124;-79
2022/10/07 00:29:37;;;;;;;9.32;6.03;;;;;;;12.41;76.27;99978.63;6048354;23;20034;-79
2022/10/07 00:32:03;;;;;;;7.75;5.88;;;;;;;12.43;76.41;99987.28;6046226;23;20013;-80
2022/10/07 00:34:29;;;;;;;8.35;6.00;;;;;;;12.40;76.27;99992.53;6062618;23;20023;-79
2022/10/07 00:36:55;;;;;;;8.32;5.88;;;;;;;12.22;76.32;99959.72;6061361;23;20019;-79
2022/10/07 00:39:21;;;;;;;8.05;5.85;;;;;;;12.26;76.17;99977.06;6042989;23;20019;-80
2022/10/07 00:41:51;;;;;;;8.00;5.60;;;;;;;12.27;75.99;99977.03;6040658;23;20492;-82
2022/10/07 00:44:45;;;;;;;7.47;5.78;;;;;;;12.34;76.29;99988.28;6040132;23;20083;-80
2022/10/07 00:47:26;;;;;;;7.45;5.43;;;;;;;12.26;76.20;99983.13;6015571;23;20101;-80
2022/10/07 00:49:57;;;;;;;9.15;5.60;;;;;;;12.26;76.26;100000.53;6016329;23;20019;-79
2022/10/07 00:52:27;;;;;;;7.88;5.55;;;;;;;12.03;75.97;99973.00;6040667;23;20011;-79
2022/10/07 00:54:56;;;;;;;8.68;5.20;;;;;;;11.92;76.09;99965.28;6037524;23;20031;-80
2022/10/07 00:57:26;;;;;;;8.73;5.90;;;;;;;12.13;76.29;100010.25;6037082;23;20019;-79
2022/10/07 00:59:56;;;;;;;7.22;5.25;;;;;;;12.04;76.15;99995.59;6037299;23;20026;-79
2022/10/07 01:02:24;;;;;;;8.15;5.15;;;;;;;12.11;76.15;100005.06;6038625;23;20027;-80
2022/10/07 01:04:52;;;;;;;7.40;5.53;;;;;;;12.11;76.03;100015.50;6037716;23;20097;-79
2022/10/07 01:07:20;;;;;;;7.30;5.43;;;;;;;12.05;75.93;100016.41;6036296;23;20023;-80
2022/10/07 01:09:50;;;;;;;7.10;5.10;;;;;;;12.00;76.01;100028.69;6036941;23;20537;-81
2022/10/07 01:12:27;;;;;;;7.30;5.10;;;;;;;11.93;76.47;100020.88;6036932;23;20019;-79
2022/10/07 01:15:18;;;;;;;7.43;4.90;;;;;;;11.78;75.95;100008.91;6037510;23;20043;-80
2022/10/07 01:18:24;;;;;;;10.32;5.32;;;;;;;11.79;76.41;100029.72;6037875;23;20106;-80
2022/10/07 01:21:08;;;;;;;6.78;5.05;;;;;;;11.62;76.24;100019.44;6037509;23;20537;-80
2022/10/07 01:23:56;;;;;;;8.77;4.88;;;;;;;11.70;76.39;100041.09;6037227;23;20412;-82
2022/10/07 01:26:35;;;;;;;6.70;4.78;;;;;;;11.70;76.43;100040.22;6037053;23;20019;-81
2022/10/07 01:29:17;;;;;;;10.02;5.18;;;;;;;11.66;76.33;100036.78;6053193;23;20492;-81
2022/10/07 01:32:09;;;;;;;11.82;5.35;;;;;;;11.72;76.38;100044.56;6069964;23;20018;-81
2022/10/07 01:34:37;;;;;;;6.18;4.15;;;;;;;11.73;76.25;100043.69;6051200;23;20025;-81
2022/10/07 01:37:07;;;;;;;8.57;5.13;;;;;;;11.73;76.31;100048.91;6070519;23;20022;-80
2022/10/07 01:39:39;;;;;;;7.22;4.70;;;;;;;11.69;76.46;100043.75;6071006;23;20022;-82
2022/10/07 01:42:06;;;;;;;6.93;4.72;;;;;;;11.66;76.07;100043.75;6074864;23;20135;-81
2022/10/07 01:44:32;;;;;;;7.18;4.45;;;;;;;11.70;76.09;100056.75;6120991;23;20002;-80
2022/10/07 01:46:59;;;;;;;7.28;4.43;;;;;;;11.68;76.24;100057.66;6098489;23;20019;-80
2022/10/07 01:49:25;;;;;;;7.32;4.40;;;;;;;11.64;76.46;100056.78;6097923;23;20002;-81
2022/10/07 01:52:22;;;;;;;7.13;4.35;;;;;;;11.72;76.44;100070.63;6090452;23;20022;-79
2022/10/07 01:55:01;;;;;;;8.70;5.28;;;;;;;11.71;75.97;100076.72;6081076;23;20025;-78
2022/10/07 01:57:47;;;;;;;6.80;4.63;;;;;;;11.66;76.33;100067.22;6057528;23;20033;-81
2022/10/07 02:00:15;;;;;;;8.63;4.80;;;;;;;11.71;76.31;100084.53;6094089;23;20013;-78
2022/10/07 02:02:46;;;;;;;7.00;4.80;;;;;;;11.70;76.02;100095.84;6090750;23;20029;-78
2022/10/07 02:05:40;;;;;;;9.23;5.20;;;;;;;11.61;76.02;100085.50;6055166;23;20018;-80
2022/10/07 02:08:36;;;;;;;8.27;5.30;;;;;;;11.63;76.24;100085.50;6088263;23;20030;-80
2022/10/07 02:11:36;;;;;;;11.07;5.50;;;;;;;11.52;76.19;100090.78;6111047;23;20026;-80
2022/10/07 02:14:23;;;;;;;7.63;5.28;;;;;;;11.47;76.57;100092.56;6077904;23;20023;-80
2022/10/07 02:16:55;;;;;;;7.57;4.88;;;;;;;11.26;75.92;100081.44;6023719;23;20074;-78
2022/10/07 02:19:31;;;;;;;9.75;5.60;;;;;;;11.33;76.26;100101.38;6071367;23;20472;-81
2022/10/07 02:22:01;;;;;;;10.55;5.60;;;;;;;11.29;76.57;100102.25;6075965;23;20014;-81
2022/10/07 02:24:31;;;;;;;12.15;5.70;;;;;;;11.25;76.55;100104.03;6029523;23;20074;-80
2022/10/07 02:27:02;;;;;;;8.90;5.33;;;;;;;11.21;76.39;100117.06;6099705;23;20022;-79
2022/10/07 02:29:33;;;;;;;10.00;5.43;;;;;;;11.19;76.98;100121.41;6049057;23;20172;-79
2022/10/07 02:32:02;;;;;;;6.80;5.03;;;;;;;11.17;76.31;100113.63;6012730;23;20473;-79
2022/10/07 02:34:31;;;;;;;8.05;5.05;;;;;;;11.12;76.83;100110.16;6036276;23;20023;-79
2022/10/07 02:37:10;;;;;;;8.93;5.22;;;;;;;11.09;76.81;100108.47;6036725;23;20046;-80
2022/10/07 02:39:36;;;;;;;8.57;5.30;;;;;;;10.99;77.04;100094.63;6013188;23;20023;-80
2022/10/07 02:42:26;;;;;;;7.90;5.50;;;;;;;11.00;77.04;100085.94;6036156;23;20019;-80
2022/10/07 02:45:01;;;;;;;8.15;5.72;;;;;;;11.10;76.83;100115.41;6036177;23;20023;-79
2022/10/07 02:47:41;;;;;;;7.88;5.75;;;;;;;11.08;76.73;100118.88;6037117;23;20106;-80
2022/10/07 02:50:11;;;;;;;9.55;5.63;;;;;;;11.11;77.18;100124.94;6036813;23;20538;-79
2022/10/07 02:52:43;;;;;;;8.73;5.40;;;;;;;11.07;77.03;100106.72;6036275;23;20023;-79
2022/10/07 02:55:14;;;;;;;10.98;5.78;;;;;;;11.20;76.93;100120.53;6012868;23;20459;-81
2022/10/07 02:57:48;;;;;;;7.63;4.87;;;;;;;10.95;77.24;100086.81;6036850;23;20019;-81
2022/10/07 03:00:16;;;;;;;7.70;5.15;;;;;;;11.20;77.25;100128.34;6036118;23;20358;-81
2022/10/07 03:02:56;;;;;;;8.90;5.10;;;;;;;11.20;77.43;100128.34;6036649;23;20025;-80
2022/10/07 03:05:28;;;;;;;6.95;4.93;;;;;;;11.06;76.91;100111.09;6037070;23;20019;-78
2022/10/07 03:08:02;;;;;;;9.48;5.03;;;;;;;11.08;77.49;100100.66;6036615;23;20035;-78
2022/10/07 03:10:31;;;;;;;8.15;5.15;;;;;;;11.21;77.18;100128.34;6012850;23;20019;-81
2022/10/07 03:12:57;;;;;;;6.85;5.05;;;;;;;11.08;77.20;100092.81;6012496;23;20098;-79
2022/10/07 03:15:24;;;;;;;8.93;5.13;;;;;;;11.25;77.19;100111.84;6036053;23;20023;-81
2022/10/07 03:17:52;;;;;;;5.97;4.70;;;;;;;11.33;77.08;100132.63;6012637;23;20107;-82
2022/10/07 03:20:18;;;;;;;8.15;4.82;;;;;;;11.37;77.46;100130.84;6012923;23;20351;-81
2022/10/07 03:22:44;;;;;;;7.85;4.78;;;;;;;11.36;77.12;100130.00;6036331;23;20043;-79
2022/10/07 03:25:14;;;;;;;8.63;4.55;;;;;;;11.34;77.19;100123.06;6041305;23;20118;-79
2022/10/07 03:27:41;;;;;;;6.25;4.65;;;;;;;11.05;76.88;100079.81;6041508;23;20023;-79
2022/10/07 03:30:09;;;;;;;5.95;4.40;;;;;;;11.33;77.14;100117.00;6036090;23;20519;-78
2022/10/07 03:32:37;;;;;;;6.18;4.55;;;;;;;11.45;76.89;100139.50;5993352;23;20019;-81
2022/10/07 03:35:04;;;;;;;8.35;4.85;;;;;;;11.41;77.04;100133.41;5993192;23;20030;-81
2022/10/07 03:37:30;;;;;;;6.20;4.53;;;;;;;11.18;76.89;100124.88;5992212;23;20075;-80
2022/10/07 03:39:58;;;;;;;8.82;4.38;;;;;;;11.27;76.76;100156.09;6042338;23;20019;-80
2022/10/07 03:42:24;;;;;;;8.30;4.30;;;;;;;11.22;76.65;100160.47;6062826;23;20042;-80
2022/10/07 03:44:50;;;;;;;8.23;4.35;;;;;;;11.00;76.71;100134.53;6059836;23;20030;-78
2022/10/07 03:47:26;;;;;;;6.65;4.40;;;;;;;11.11;76.96;100169.22;5996844;23;20023;-84
2022/10/07 03:49:53;;;;;;;7.60;4.55;;;;;;;11.08;76.57;100171.84;6015294;23;20011;-80
2022/10/07 03:52:19;;;;;;;5.25;4.10;;;;;;;11.09;77.20;100172.69;6054948;23;20039;-79
2022/10/07 03:54:45;;;;;;;9.57;4.55;;;;;;;11.02;76.86;100165.81;6049222;23;20023;-80
2022/10/07 03:59:59;;;;;;;9.40;4.15;;;;;;;11.17;77.31;100178.75;6047067;23;20473;-80
2022/10/07 04:02:25;;;;;;;7.43;4.50;;;;;;;11.17;77.26;100164.84;6017642;23;20015;-80
2022/10/07 04:04:51;;;;;;;7.13;4.05;;;;;;;11.31;76.96;100178.66;6041135;23;20031;-79
2022/10/07 04:07:20;;;;;;;8.98;4.03;;;;;;;11.43;76.90;100181.19;6049952;23;20019;-80
2022/10/07 04:09:47;;;;;;;4.47;3.53;;;;;;;11.41;76.90;100159.47;6058654;23;20030;-80
2022/10/07 04:12:13;;;;;;;6.40;4.03;;;;;;;11.39;76.63;100158.63;6060885;23;20030;-80
2022/10/07 04:14:40;;;;;;;10.27;4.70;;;;;;;11.44;76.72;100156.84;6060594;23;20026;-80
2022/10/07 04:17:06;;;;;;;9.70;4.20;;;;;;;11.68;76.53;100180.16;6011169;23;20039;-81
2022/10/07 04:19:32;;;;;;;5.90;4.25;;;;;;;12.03;76.79;100177.28;6057153;23;20026;-81
2022/10/07 04:22:00;;;;;;;9.10;4.07;;;;;;;12.62;76.55;100165.38;6059109;23;20000;-81
2022/10/07 04:24:27;;;;;;;6.90;3.67;;;;;;;13.58;76.12;100152.81;6048432;23;20019;-79
2022/10/07 04:26:53;;;;;;;4.72;3.58;;;;;;;14.81;75.15;100182.97;6016299;23;20457;-82
2022/10/07 04:29:19;;;;;;;8.90;3.60;;;;;;;15.66;74.97;100162.75;6033880;23;20453;-81
2022/10/07 04:31:48;;;;;;;8.45;3.80;;;;;;;16.31;72.67;100150.63;6097915;23;20186;-82
2022/10/07 04:34:16;;;;;;;6.38;3.55;;;;;;;17.21;71.41;100186.66;6096895;23;20022;-81
2022/10/07 04:36:42;;;;;;;4.30;3.35;;;;;;;16.83;69.21;100182.44;6025495;23;20022;-80
2022/10/07 04:39:12;;;;;;;5.82;3.40;;;;;;;16.00;68.20;100196.03;6073210;23;20018;-81
2022/10/07 04:41:46;;;;;;;5.28;3.92;;;;;;;15.29;68.42;100200.28;6074652;23;20040;-83
2022/10/07 04:44:19;;;;;;;6.32;3.90;;;;;;;14.52;68.43;100176.50;6036528;23;20053;-83
2022/10/07 04:46:55;;;;;;;12.20;3.78;;;;;;;15.57;68.76;100204.91;6072808;23;20419;-82
2022/10/07 04:49:25;;;;;;;7.90;3.47;;;;;;;16.77;67.85;100173.88;6073817;23;20050;-82
2022/10/07 04:51:53;;;;;;;5.85;4.65;;;;;;;17.94;67.16;100165.91;6053595;23;20018;-82
2022/10/07 04:54:21;;;;;;;6.20;3.78;;;;;;;19.05;65.14;100179.63;6073378;23;20040;-82
2022/10/07 04:56:52;;;;;;;4.78;3.40;;;;;;;19.65;63.01;100148.22;6055249;23;20018;-84
2022/10/07 04:59:22;;;;;;;7.55;3.90;;;;;;;20.33;61.62;100128.66;6072322;23;20483;-80
2022/10/07 05:01:48;;;;;;;6.65;3.42;;;;;;;20.89;60.11;100063.56;6072820;23;20018;-83
2022/10/07 05:04:14;;;;;;;3.53;2.92;;;;;;;21.98;57.10;100097.97;6070794;23;20022;-82
2022/10/07 05:06:40;;;;;;;8.23;3.25;;;;;;;23.24;56.03;100163.75;6070624;23;20025;-83
2022/10/07 05:09:15;;;;;;;5.95;3.25;;;;;;;24.39;53.86;100191.69;6070942;23;20448;-82
2022/10/07 05:11:43;;;;;;;7.05;3.28;;;;;;;25.03;50.51;100185.19;6070572;23;20500;-83
2022/10/07 05:14:15;;;;;;;8.85;3.42;;;;;;;25.44;48.97;100181.69;6026992;23;20018;-80
2022/10/07 05:16:43;;;;;;;7.30;3.40;;;;;;;25.97;47.50;100178.19;6047858;23;20087;-82
2022/10/07 05:19:09;;;;;;;5.53;3.10;;;;;;;26.60;45.40;100189.03;6021462;23;20033;-80
2022/10/07 05:21:36;;;;;;;4.10;3.28;;;;;;;27.08;45.06;100187.50;6080193;23;20017;-82
2022/10/07 05:24:03;;;;;;;3.80;2.95;;;;;;;27.29;42.97;100188.63;6071934;23;20460;-82
2022/10/07 05:26:33;;;;;;;6.03;3.93;;;;;;;27.47;43.23;100196.31;6071569;23;20029;-80
2022/10/07 05:29:02;;;;;;;5.50;3.60;;;;;;;27.49;42.08;100194.34;6072439;23;20026;-80
2022/10/07 05:31:35;;;;;;;6.88;3.35;;;;;;;26.02;41.79;100200.06;6071193;23;20029;-81
2022/10/07 05:34:03;;;;;;;6.35;3.15;;;;;;;26.16;42.52;100184.00;6047164;23;20073;-83
2022/10/07 05:36:29;;;;;;;5.15;3.63;;;;;;;27.13;41.45;100145.31;6072038;23;20085;-81
2022/10/07 05:38:58;;;;;;;6.78;3.40;;;;;;;27.91;40.13;100148.47;6025423;23;20026;-82
2022/10/07 05:41:30;;;;;;;5.25;2.97;;;;;;;27.63;38.85;100212.88;6072961;23;20455;-81
2022/10/07 05:43:58;;;;;;;5.25;2.75;;;;;;;25.91;39.12;100219.47;6072088;23;20018;-82
2022/10/07 05:46:24;;;;;;;6.07;2.88;;;;;;;24.04;41.33;100235.38;6053175;23;20452;-80
2022/10/07 05:48:56;;;;;;;5.18;3.40;;;;;;;22.36;43.32;100240.84;6112827;23;20018;-81
2022/10/07 05:51:27;;;;;;;6.53;3.20;;;;;;;21.58;44.80;100246.41;6092339;23;20010;-82
2022/10/07 05:53:56;;;;;;;8.48;2.92;;;;;;;20.77;45.93;100222.78;6092278;23;20073;-82
2022/10/07 05:56:27;;;;;;;3.88;2.42;;;;;;;20.13;46.48;100238.72;6077173;23;20022;-81
2022/10/07 05:58:57;;;;;;;4.68;2.55;;;;;;;19.72;47.38;100234.16;6082818;23;20022;-83
2022/10/07 06:01:27;;;;;;;7.32;3.13;;;;;;;19.62;47.75;100263.63;6093938;23;20026;-81
2022/10/07 06:03:56;;;;;;;5.43;2.47;;;;;;;18.65;48.83;100180.13;6067703;23;20061;-81
2022/10/07 06:06:25;;;;;;;4.20;2.70;;;;;;;19.01;49.42;100271.16;6061453;23;20018;-82
2022/10/07 06:13:06;;;;;;;7.63;2.45;;;;;;;18.98;50.05;100265.13;6074884;23;20018;-81
2022/10/07 06:14:26;;;;;;;5.18;2.30;;;;;;;24.03;47.23;100270.03;6096660;23;20018;-82
2022/10/07 06:16:52;;;;;;;5.63;2.20;;;;;;;26.19;44.35;100251.44;6096811;23;20025;-82
2022/10/07 06:19:21;;;;;;;4.85;2.22;;;;;;;28.19;41.27;100259.56;6070782;23;20022;-81
2022/10/07 06:21:49;;;;;;;5.15;2.50;;;;;;;28.23;38.78;100242.31;6048555;23;20102;-81
2022/10/07 06:24:17;;;;;;;3.85;2.10;;;;;;;28.81;37.60;100195.09;6073049;23;20018;-84
2022/10/07 06:26:45;;;;;;;2.80;2.00;;;;;;;29.59;36.13;100163.78;6083466;23;20042;-82
2022/10/07 06:29:12;;;;;;;3.10;1.90;;;;;;;31.15;35.27;100240.03;6080633;23;20018;-83
2022/10/07 06:31:39;;;;;;;6.18;2.20;;;;;;;32.48;33.50;100269.31;6048265;23;20023;-82
2022/10/07 06:34:05;;;;;;;6.40;2.28;;;;;;;32.61;33.01;100275.22;6023611;23;20042;-84
2022/10/07 06:36:32;;;;;;;4.25;2.03;;;;;;;33.03;32.05;100245.19;6095815;23;20073;-82
2022/10/07 06:38:59;;;;;;;5.43;2.22;;;;;;;33.80;30.93;100277.22;6070363;23;20038;-82
2022/10/07 06:41:30;;;;;;;3.53;2.25;;;;;;;34.46;29.92;100232.94;6070672;23;20022;-83
2022/10/07 06:44:19;;;;;;;5.45;2.20;;;;;;;35.98;29.24;100269.19;6080286;23;20026;-83
2022/10/07 06:46:46;;;;;;;6.22;2.30;;;;;;;36.37;28.38;100275.75;6070790;23;20022;-83
2022/10/07 06:49:18;;;;;;;5.40;2.25;;;;;;;36.62;27.49;100260.31;6080533;23;20010;-82
2022/10/07 06:51:46;;;;;;;6.07;3.72;;;;;;;36.88;26.50;100172.50;6046153;23;20082;-81
2022/10/07 06:54:13;;;;;;;3.15;2.40;;;;;;;37.89;26.07;100282.97;6086027;23;20052;-82
2022/10/07 06:56:39;;;;;;;10.70;2.30;;;;;;;37.67;25.85;100292.78;6048390;23;20018;-81
2022/10/07 06:59:06;;;;;;;3.13;1.75;;;;;;;38.08;25.54;100299.81;6047145;23;20321;-85
2022/10/07 07:01:40;;;;;;;7.57;1.80;;;;;;;35.42;25.79;100269.69;6073236;23;20050;-83
2022/10/07 07:04:07;;;;;;;7.00;1.83;;;;;;;32.86;26.73;100298.03;6070546;23;20451;-81
2022/10/07 07:06:45;;;;;;;5.38;1.95;;;;;;;30.73;29.17;100328.75;6046385;23;20026;-81
2022/10/07 07:09:53;;;;;;;4.07;1.75;;;;;;;28.43;30.97;100280.06;6073568;23;20082;-83
2022/10/07 07:12:35;;;;;;;3.83;2.20;;;;;;;25.81;32.78;100199.72;6075001;23;20029;-84
2022/10/07 07:15:21;;;;;;;3.78;1.70;;;;;;;24.78;34.21;100251.41;6072625;23;20014;-85
2022/10/07 07:18:10;;;;;;;4.15;1.63;;;;;;;23.39;35.60;100233.72;6078421;23;20018;-83
2022/10/07 07:20:39;;;;;;;3.25;1.60;;;;;;;23.77;37.39;100259.06;6074611;23;20018;-79
2022/10/07 07:23:11;;;;;;;3.53;1.80;;;;;;;26.12;36.36;100291.84;6073335;23;20133;-83
2022/10/07 07:25:43;;;;;;;3.80;1.73;;;;;;;28.88;34.18;100345.41;6074355;23;20448;-84
2022/10/07 07:28:15;;;;;;;4.97;1.73;;;;;;;30.89;31.19;100291.50;6077392;23;20014;-83
2022/10/07 07:30:49;;;;;;;4.80;2.00;;;;;;;32.29;29.17;100225.31;6027586;23;20475;-82
2022/10/07 07:33:25;;;;;;;5.65;2.00;;;;;;;33.23;28.33;100238.84;6048783;23;20026;-83
2022/10/07 07:36:22;;;;;;;3.75;1.50;;;;;;;31.53;27.99;100259.94;6048115;23;20014;-83
2022/10/07 07:39:22;;;;;;;4.30;1.60;;;;;;;29.07;29.92;100336.78;6049804;23;20018;-82
2022/10/07 07:45:54;;;;;;;7.93;1.67;;;;;;;24.16;35.06;100220.53;6051573;23;20032;-83
2022/10/07 07:48:28;;;;;;;6.40;1.88;;;;;;;24.26;35.88;100388.31;6029315;23;20475;-83
2022/10/07 07:51:12;;;;;;;5.90;3.20;;;;;;;23.66;36.80;100386.28;6025335;23;20105;-82
2022/10/07 07:53:57;;;;;;;3.85;1.60;;;;;;;22.70;37.26;100342.59;6029761;23;20018;-82
2022/10/07 07:56:31;;;;;;;;;;;;;;;22.38;38.46;100392.75;6030120;23;20014;-82
2022/10/07 07:59:36;;;;;;;3.47;1.10;;;;;;;20.74;39.42;100259.94;6073984;23;19929;-81
2022/10/07 08:03:21;;;;;;;;;;;;;;;;;;;;;
2022/10/07 08:06:23;;;;;;;6.22;1.50;;;;;;;19.35;41.93;100306.84;5998273;23;20024;-82
2022/10/07 08:12:30;;;;;;;5.45;1.60;;;;;;;19.10;43.56;100410.59;6074243;23;20094;-81
2022/10/07 08:15:10;;;;;;;4.70;1.30;;;;;;;18.26;44.39;100351.00;6051354;23;20045;-84
2022/10/07 08:17:42;;;;;;;4.85;1.30;;;;;;;18.18;45.15;100422.34;6075124;23;20027;-83
2022/10/07 08:20:18;;;;;;;5.18;1.58;;;;;;;16.83;45.73;100236.75;6045567;23;20125;-82
2022/10/07 08:22:53;;;;;;;5.47;1.67;;;;;;;17.92;45.73;100437.97;6091349;23;20028;-81
2022/10/07 08:25:21;;;;;;;5.88;1.80;;;;;;;17.23;46.19;100325.03;6064471;23;20035;-81
2022/10/07 08:28:23;;;;;;;9.90;1.65;;;;;;;16.50;46.35;100250.78;6069877;23;20034;-81
2022/10/07 08:31:09;;;;;;;4.07;1.60;;;;;;;16.94;47.32;100376.66;6071211;23;20007;-83
2022/10/07 08:33:50;;;;;;;7.00;1.70;;;;;;;16.92;47.84;100390.72;6036748;23;20042;-80
2022/10/07 08:36:23;;;;;;;4.60;1.67;;;;;;;17.23;48.17;100459.16;6089748;23;20103;-83
2022/10/07 08:38:51;;;;;;;7.97;1.60;;;;;;;16.48;47.98;100343.66;6041912;23;20033;-81
2022/10/07 08:41:27;;;;;;;6.47;1.50;;;;;;;17.08;48.22;100460.44;6066018;23;20334;-84
2022/10/07 08:43:57;;;;;;;5.40;1.60;;;;;;;17.11;48.52;100459.50;6040378;23;20014;-80
2022/10/07 08:46:32;;;;;;;4.13;1.88;;;;;;;17.07;48.52;100455.22;6064818;23;20026;-81
2022/10/07 08:49:17;;;;;;;12.30;2.35;;;;;;;16.96;48.83;100460.75;6063277;23;20018;-82
2022/10/07 08:51:53;;;;;;;7.40;1.75;;;;;;;16.85;50.74;100288.38;6066819;23;20022;-82
2022/10/07 08:54:29;;;;;;;4.38;1.63;;;;;;;17.33;48.06;100265.16;6045818;23;20006;-80
2022/10/07 08:57:43;;;;;;;7.57;1.67;;;;;;;18.38;47.61;100471.78;6046355;23;20023;-82
2022/10/07 09:00:16;;;;;;;9.65;2.13;;;;;;;17.82;47.52;100397.06;6082835;23;20436;-81
2022/10/07 09:03:18;;;;;;;6.22;1.67;;;;;;;17.22;47.89;100377.69;6066948;23;20029;-81
2022/10/07 09:05:49;;;;;;;6.27;2.07;;;;;;;17.59;48.57;100458.22;6061562;23;19995;-81
2022/10/07 09:08:27;;;;;;;11.57;2.05;;;;;;;17.48;48.30;100479.56;6062930;23;20029;-81
2022/10/07 09:10:58;;;;;;;6.18;1.50;;;;;;;16.46;48.59;100375.19;6041659;23;20019;-81
2022/10/07 09:13:52;;;;;;;6.60;1.90;;;;;;;16.23;49.56;100376.59;6041475;23;20027;-80
2022/10/07 09:16:34;;;;;;;10.75;1.88;;;;;;;16.56;50.16;100407.34;6085015;23;20029;-81
2022/10/07 09:19:05;;;;;;;10.68;3.28;;;;;;;16.82;49.51;100443.53;6032265;23;20027;-79
2022/10/07 09:21:50;;;;;;;13.77;6.30;;;;;;;16.92;49.60;100424.88;6075941;23;20337;-82
2022/10/07 09:24:42;;;;;;;12.18;6.45;;;;;;;17.27;49.61;100423.16;6075581;23;20046;-82
2022/10/07 09:27:25;;;;;;;10.55;3.03;;;;;;;17.75;48.71;100479.72;6025615;23;20425;-82
2022/10/07 09:30:11;;;;;;;5.78;1.95;;;;;;;16.20;49.22;100276.94;6050693;23;20466;-82
2022/10/07 09:33:02;;;;;;;5.78;1.80;;;;;;;16.83;49.58;100382.19;6053110;23;20522;-84
2022/10/07 09:35:33;;;;;;;8.50;2.15;;;;;;;18.15;49.86;100462.78;6075954;23;20408;-82
2022/10/07 09:51:56;;;;;;;;;;;;;;;;;;;;;
2022/10/07 09:54:54;;;;;;;;;;;;;;;17.69;48.85;100459.69;5859146;24;20022;-82
2022/10/07 09:57:39;;;;;;;7.70;1.70;;;;;;;16.49;49.75;100351.47;5892174;24;19915;-83
2022/10/07 10:03:18;;;;;;;6.43;1.90;;;;;;;16.66;49.78;100337.09;6109778;23;20018;-82
2022/10/07 10:06:25;;;;;;;7.68;2.05;;;;;;;16.99;49.01;100355.50;6134023;23;20065;-81
2022/10/07 10:09:05;;;;;;;5.47;1.80;;;;;;;17.42;49.35;100393.78;6038952;23;20044;-81
2022/10/07 10:11:32;;;;;;;6.03;2.00;;;;;;;17.94;48.65;100423.91;6084166;23;20014;-81
2022/10/07 10:14:27;;;;;;;7.43;2.67;;;;;;;17.96;47.82;100398.41;6108052;23;20018;-82
2022/10/07 10:16:55;;;;;;;7.63;3.20;;;;;;;17.27;48.00;100367.91;6114210;23;20022;-80
2022/10/07 10:19:34;;;;;;;5.07;2.67;;;;;;;16.66;48.54;100290.63;6148073;23;20018;-80
2022/10/07 10:22:01;;;;;;;11.95;2.13;;;;;;;17.45;49.01;100441.06;6096665;23;20014;-81
2022/10/07 10:28:26;;;;;;;;;;;;;;;;;;;;;
2022/10/07 10:31:13;;;;;;;6.68;1.95;;;;;;;16.83;49.27;100433.84;6116650;23;20010;-80
2022/10/07 10:34:02;;;;;;;3.83;1.35;;;;;;;16.00;49.25;100321.16;6138561;23;20025;-81
2022/10/07 10:36:52;;;;;;;8.38;1.63;;;;;;;16.60;49.69;100416.88;6085987;23;20026;-80
2022/10/07 10:39:48;;;;;;;4.18;1.58;;;;;;;16.89;49.38;100435.47;6082004;23;20021;-79
2022/10/07 10:42:51;;;;;;;7.18;1.73;;;;;;;17.13;49.34;100432.25;6113157;23;20006;-81
2022/10/07 10:45:41;;;;;;;;;;;;;;;17.78;49.23;100482.28;6095347;23;20003;-82
2022/10/07 10:48:29;;;;;;;5.38;2.00;;;;;;;17.83;49.12;100476.88;6090722;23;19965;-82
2022/10/07 10:51:09;;;;;;;5.75;1.52;;;;;;;17.53;49.14;100469.78;6096901;23;20041;-82
2022/10/07 10:54:16;;;;;;;4.95;1.23;;;;;;;17.05;49.89;100457.88;6090436;23;20455;-80
2022/10/07 10:57:08;;;;;;;3.13;1.65;;;;;;;16.70;50.21;100465.69;6079158;23;20021;-81
2022/10/07 10:59:46;;;;;;;;;;;;;;;16.44;50.93;100471.53;6054221;23;20021;-81
2022/10/07 11:02:37;;;;;;;7.15;1.75;;;;;;;16.29;51.43;100472.78;6091270;23;19929;-81
2022/10/07 11:05:55;;;;;;;4.70;1.60;;;;;;;15.46;51.60;100365.97;6050631;23;20038;-83
2022/10/07 11:08:57;;;;;;;5.28;1.65;;;;;;;15.90;52.16;100478.81;5994746;23;20049;-81
2022/10/07 11:11:30;;;;;;;4.80;1.67;;;;;;;15.77;52.51;100459.78;6008180;23;20015;-82
2022/10/07 11:14:12;;;;;;;7.35;2.05;;;;;;;15.15;52.50;100360.47;5994124;23;20107;-80
2022/10/07 11:16:48;;;;;;;11.57;1.73;;;;;;;15.93;52.60;100476.13;6014417;23;20051;-80
2022/10/07 11:19:24;;;;;;;5.97;1.98;;;;;;;15.74;52.14;100427.53;5947079;23;20110;-81
2022/10/07 11:21:59;;;;;;;5.13;2.05;;;;;;;15.44;52.39;100365.16;6029823;23;20024;-81
2022/10/07 11:24:29;;;;;;;8.90;2.13;;;;;;;15.21;51.83;100300.94;5993903;23;20019;-80
2022/10/07 11:27:00;;;;;;;5.43;1.95;;;;;;;16.22;52.20;100476.41;5973462;23;20020;-82
2022/10/07 11:29:47;;;;;;;5.55;1.80;;;;;;;16.08;52.38;100485.47;6031363;23;20079;-83
2022/10/07 11:32:25;;;;;;;6.72;1.95;;;;;;;15.12;52.49;100318.59;5954863;23;20020;-83
2022/10/07 11:35:29;;;;;;;6.68;1.80;;;;;;;16.30;52.43;100479.75;5944562;24;20035;-83
2022/10/07 11:38:18;;;;;;;6.95;1.80;;;;;;;16.23;51.93;100452.75;5999091;24;20031;-83
2022/10/07 11:41:04;;;;;;;7.40;2.03;;;;;;;16.02;52.22;100413.81;6049239;23;20023;-83
2022/10/07 11:43:45;;;;;;;7.85;2.20;;;;;;;15.82;51.89;100384.47;6001295;23;20116;-83
2022/10/07 11:46:30;;;;;;;6.07;1.83;;;;;;;15.89;51.89;100437.72;6002990;23;20015;-83
2022/10/07 11:49:28;;;;;;;9.52;1.50;;;;;;;14.90;52.10;100298.03;6003358;23;20030;-83
2022/10/07 11:52:23;;;;;;;5.22;1.77;;;;;;;15.74;52.09;100457.22;6050603;23;20096;-82
2022/10/07 11:55:29;;;;;;;6.80;1.50;;;;;;;15.89;52.67;100489.34;6035515;23;20023;-83
2022/10/07 11:58:02;;;;;;;4.03;1.48;;;;;;;15.03;52.90;100399.13;5952637;24;20027;-81
2022/10/07 12:00:39;;;;;;;3.97;1.60;;;;;;;15.04;52.99;100397.34;6022500;23;20109;-81
2022/10/07 12:03:43;;;;;;;5.00;2.00;;;;;;;15.10;52.20;100394.63;6061603;23;20026;-82
2022/10/07 12:06:13;;;;;;;6.50;1.75;;;;;;;15.74;52.38;100466.88;6040049;23;20429;-81
2022/10/07 12:08:45;;;;;;;7.35;1.70;;;;;;;14.88;51.95;100326.03;6037975;23;20109;-82
2022/10/07 12:11:21;;;;;;;6.13;1.63;;;;;;;15.93;51.93;100512.88;6040339;23;20133;-82
2022/10/07 12:14:18;;;;;;;3.10;1.58;;;;;;;15.25;52.03;100398.72;6061206;23;20019;-82
2022/10/07 12:16:57;;;;;;;7.28;1.90;;;;;;;15.39;51.93;100442.16;6088104;23;20037;-79
2022/10/07 12:19:24;;;;;;;4.38;1.55;;;;;;;15.18;51.76;100426.81;6051011;23;20002;-81
2022/10/07 12:22:27;;;;;;;5.07;1.50;;;;;;;15.76;52.22;100507.06;6093991;23;20044;-82
2022/10/07 12:25:37;;;;;;;4.00;1.40;;;;;;;15.84;52.13;100507.75;6072798;23;20032;-79
2022/10/07 12:28:03;;;;;;;7.50;2.00;;;;;;;15.90;51.90;100506.81;6079199;23;20034;-81
2022/10/07 12:30:41;;;;;;;4.97;1.70;;;;;;;15.47;51.52;100435.03;6150354;23;20014;-82
2022/10/07 12:33:25;;;;;;;6.28;1.50;;;;;;;15.82;51.92;100496.44;6112966;23;20363;-80
2022/10/07 12:35:56;;;;;;;5.03;1.67;;;;;;;15.50;51.97;100451.56;6063864;23;20022;-82
2022/10/07 12:38:27;;;;;;;;;;;;;;;15.92;52.05;100508.53;6098343;23;20014;-81
2022/10/07 12:41:42;;;;;;;6.32;1.88;;;;;;;15.44;51.78;100425.47;6073847;23;19917;-82
2022/10/07 12:44:51;;;;;;;10.20;2.50;;;;;;;16.11;51.93;100516.88;6072653;23;20022;-82